createdAt,value
2023-05-22T00:01:30.663Z,9.30
2023-05-22T00:03:58.060Z,9.18
2023-05-22T00:06:25.408Z,9.75
2023-05-22T00:08:52.866Z,9.73
2023-05-22T00:11:20.243Z,9.57
2023-05-22T00:13:47.602Z,9.50
2023-05-22T00:16:15.012Z,9.77
2023-05-22T00:18:43.029Z,10.10
2023-05-22T00:21:11.017Z,9.85
2023-05-22T00:23:38.396Z,9.75
2023-05-22T00:26:05.986Z,10.80
2023-05-22T00:28:33.362Z,10.18
2023-05-22T00:31:00.872Z,10.27
2023-05-22T00:33:28.301Z,10.43
2023-05-22T00:35:55.763Z,9.32
2023-05-22T00:38:30.869Z,10.35
2023-05-22T00:40:58.314Z,9.38
2023-05-22T00:43:26.015Z,10.30
2023-05-22T00:45:54.744Z,10.27
2023-05-22T00:48:22.729Z,9.75
2023-05-22T00:50:51.154Z,9.90
2023-05-22T00:53:21.382Z,10.63
2023-05-22T00:55:49.260Z,10.80
2023-05-22T00:58:18.684Z,10.70
2023-05-22T01:00:49.609Z,10.60
2023-05-22T01:03:17.386Z,11.20
2023-05-22T01:05:45.525Z,10.02
2023-05-22T01:08:13.209Z,10.27
2023-05-22T01:10:41.314Z,10.40
2023-05-22T01:13:27.763Z,10.70
2023-05-22T01:16:01.711Z,11.35
2023-05-22T01:18:38.150Z,10.73
2023-05-22T01:21:05.499Z,11.30
2023-05-22T01:23:54.351Z,11.52
2023-05-22T01:26:40.634Z,11.57
2023-05-22T01:29:11.061Z,11.10
2023-05-22T01:31:41.008Z,10.27
2023-05-22T01:34:11.218Z,11.63
2023-05-22T01:36:39.497Z,11.55
2023-05-22T01:39:07.589Z,11.02
2023-05-22T01:41:35.209Z,11.32
2023-05-22T01:44:03.032Z,11.45
2023-05-22T01:46:31.041Z,11.57
2023-05-22T01:48:59.097Z,11.30
2023-05-22T01:51:29.566Z,10.48
2023-05-22T01:53:59.981Z,10.52
2023-05-22T01:56:34.871Z,9.82
2023-05-22T01:59:05.181Z,11.50
2023-05-22T02:01:33.715Z,11.35
2023-05-22T02:04:02.100Z,10.82
2023-05-22T02:06:30.353Z,11.25
2023-05-22T02:08:58.017Z,11.35
2023-05-22T02:11:27.439Z,10.52
2023-05-22T02:13:55.064Z,10.95
2023-05-22T02:16:22.873Z,11.38
2023-05-22T02:18:51.551Z,12.18
2023-05-22T02:21:18.915Z,11.52
2023-05-22T02:23:46.329Z,11.23
2023-05-22T02:26:13.683Z,11.13
2023-05-22T02:28:43.104Z,11.82
2023-05-22T02:31:10.506Z,11.27
2023-05-22T02:33:37.991Z,11.13
2023-05-22T02:36:06.010Z,11.10
2023-05-22T02:38:33.411Z,10.98
2023-05-22T02:41:00.872Z,11.48
2023-05-22T02:43:28.269Z,11.43
2023-05-22T02:45:55.680Z,11.68
2023-05-22T02:48:23.148Z,10.55
2023-05-22T02:50:50.594Z,10.70
2023-05-22T02:53:17.993Z,11.15
2023-05-22T02:55:46.122Z,11.05
2023-05-22T02:58:13.577Z,10.68
2023-05-22T03:00:43.966Z,11.82
2023-05-22T03:03:11.902Z,11.35
2023-05-22T03:05:40.267Z,11.25
2023-05-22T03:08:07.630Z,11.57
2023-05-22T03:10:34.983Z,11.13
2023-05-22T03:13:02.379Z,11.68
2023-05-22T03:15:29.772Z,10.95
2023-05-22T03:17:57.177Z,11.23
2023-05-22T03:20:24.581Z,11.57
2023-05-22T03:22:51.970Z,12.00
2023-05-22T03:25:20.630Z,12.35
2023-05-22T03:27:48.071Z,11.27
2023-05-22T03:30:15.691Z,11.30
2023-05-22T03:32:43.089Z,12.20
2023-05-22T03:35:10.803Z,11.35
2023-05-22T03:37:38.180Z,11.13
2023-05-22T03:40:06.096Z,12.27
2023-05-22T03:42:33.526Z,11.88
2023-05-22T03:45:00.891Z,10.95
2023-05-22T03:47:28.258Z,12.68
2023-05-22T03:49:55.664Z,11.10
2023-05-22T03:52:23.379Z,11.57
2023-05-22T03:54:50.913Z,11.55
2023-05-22T03:57:20.206Z,11.38
2023-05-22T03:59:47.658Z,12.45
2023-05-22T04:02:16.975Z,12.25
2023-05-22T04:04:46.584Z,11.80
2023-05-22T04:07:14.013Z,11.10
2023-05-22T04:09:41.755Z,11.60
2023-05-22T04:12:09.266Z,10.63
2023-05-22T04:14:36.837Z,11.60
2023-05-22T04:17:04.256Z,11.38
2023-05-22T04:19:31.716Z,11.30
2023-05-22T04:21:59.408Z,11.07
2023-05-22T04:24:27.924Z,10.77
2023-05-22T04:26:55.392Z,11.00
2023-05-22T04:29:22.992Z,10.20
2023-05-22T04:31:50.352Z,10.80
2023-05-22T04:34:18.675Z,10.48
2023-05-22T04:36:46.743Z,10.93
2023-05-22T04:39:14.158Z,11.10
2023-05-22T04:41:41.884Z,11.15
2023-05-22T04:44:09.291Z,10.98
2023-05-22T04:46:36.692Z,11.48
2023-05-22T04:49:04.810Z,11.15
2023-05-22T04:51:33.284Z,11.43
2023-05-22T04:54:00.650Z,10.75
2023-05-22T04:56:36.185Z,10.77
2023-05-22T04:59:05.814Z,11.57
2023-05-22T05:01:33.668Z,11.10
2023-05-22T05:04:01.433Z,10.85
2023-05-22T05:06:28.945Z,11.55
2023-05-22T05:08:56.343Z,11.57
2023-05-22T05:11:23.725Z,11.93
2023-05-22T05:13:51.167Z,11.40
2023-05-22T05:16:19.317Z,10.88
2023-05-22T05:18:46.831Z,10.18
2023-05-22T05:21:14.212Z,11.55
2023-05-22T05:23:42.091Z,10.75
2023-05-22T05:26:09.476Z,11.18
2023-05-22T05:28:38.020Z,11.10
2023-05-22T05:31:05.382Z,10.77
2023-05-22T05:33:32.755Z,10.80
2023-05-22T05:36:00.335Z,10.57
2023-05-22T05:38:27.713Z,10.60
2023-05-22T05:40:55.144Z,9.75
2023-05-22T05:43:23.488Z,11.25
2023-05-22T05:45:50.977Z,9.60
2023-05-22T05:48:18.382Z,10.25
2023-05-22T05:50:45.802Z,9.88
2023-05-22T05:53:13.224Z,10.00
2023-05-22T05:55:40.572Z,9.93
2023-05-22T05:58:08.067Z,9.60
2023-05-22T06:00:35.490Z,9.52
2023-05-22T06:03:03.072Z,9.32
2023-05-22T06:05:30.595Z,9.50
2023-05-22T06:07:59.101Z,8.93
2023-05-22T06:10:26.627Z,9.95
2023-05-22T06:12:54.016Z,9.15
2023-05-22T06:15:21.413Z,9.25
2023-05-22T06:17:48.919Z,9.13
2023-05-22T06:20:16.379Z,8.93
2023-05-22T06:22:43.747Z,8.48
2023-05-22T06:25:11.114Z,8.82
2023-05-22T06:27:38.668Z,8.48
2023-05-22T06:30:06.339Z,8.52
2023-05-22T06:32:33.838Z,8.90
2023-05-22T06:35:01.652Z,8.48
2023-05-22T06:37:29.026Z,8.50
2023-05-22T06:39:56.441Z,8.85
2023-05-22T06:42:23.828Z,8.65
2023-05-22T06:44:51.216Z,9.82
2023-05-22T06:47:18.669Z,8.68
2023-05-22T06:49:46.274Z,8.40
2023-05-22T06:52:14.524Z,9.52
2023-05-22T06:54:43.239Z,8.80
2023-05-22T06:57:11.361Z,9.73
2023-05-22T06:59:38.739Z,9.35
2023-05-22T07:02:06.343Z,9.15
2023-05-22T07:04:33.803Z,10.05
2023-05-22T07:07:01.527Z,10.13
2023-05-22T07:09:28.991Z,9.13
2023-05-22T07:11:56.469Z,9.70
2023-05-22T07:14:23.872Z,9.80
2023-05-22T07:16:51.483Z,10.15
2023-05-22T07:19:19.610Z,9.70
2023-05-22T07:21:47.337Z,10.63
2023-05-22T07:24:14.715Z,10.93
2023-05-22T07:26:46.686Z,9.32
2023-05-22T07:29:14.465Z,8.98
2023-05-22T07:31:42.662Z,9.55
2023-05-22T07:34:10.103Z,9.57
2023-05-22T07:36:37.772Z,9.45
2023-05-22T07:39:05.656Z,9.05
2023-05-22T07:41:33.308Z,9.30
2023-05-22T07:44:00.925Z,8.85
2023-05-22T07:46:28.500Z,9.63
2023-05-22T07:48:56.096Z,9.32
2023-05-22T07:51:23.529Z,9.52
2023-05-22T07:53:51.100Z,9.52
2023-05-22T07:56:18.510Z,9.07
2023-05-22T07:58:48.467Z,9.85
2023-05-22T08:01:15.822Z,9.80
2023-05-22T08:03:43.454Z,10.43
2023-05-22T08:06:11.218Z,11.80
2023-05-22T08:08:38.646Z,11.48
2023-05-22T08:11:06.182Z,10.90
2023-05-22T08:13:34.190Z,10.43
2023-05-22T08:16:01.832Z,9.93
2023-05-22T08:18:30.134Z,10.98
2023-05-22T08:20:57.951Z,10.18
2023-05-22T08:23:25.483Z,10.10
2023-05-22T08:25:52.900Z,10.82
2023-05-22T08:28:20.456Z,10.65
2023-05-22T08:30:47.825Z,9.98
2023-05-22T08:33:15.272Z,12.15
2023-05-22T08:35:42.673Z,11.90
2023-05-22T08:38:10.117Z,10.50
2023-05-22T08:40:38.633Z,11.35
2023-05-22T08:43:07.070Z,10.90
2023-05-22T08:45:35.013Z,10.50
2023-05-22T08:48:08.653Z,11.63
2023-05-22T08:50:40.391Z,11.65
2023-05-22T08:53:09.376Z,12.30
2023-05-22T08:55:37.155Z,11.52
2023-05-22T08:58:05.428Z,9.75
2023-05-22T09:00:33.473Z,12.30
2023-05-22T09:03:01.058Z,12.35
2023-05-22T09:05:28.549Z,12.40
2023-05-22T09:07:58.417Z,10.88
2023-05-22T09:10:30.317Z,12.43
2023-05-22T09:13:00.807Z,12.38
2023-05-22T09:15:30.086Z,11.25
2023-05-22T09:17:57.688Z,11.10
2023-05-22T09:20:25.205Z,12.40
2023-05-22T09:22:52.603Z,11.80
2023-05-22T09:25:20.769Z,10.00
2023-05-22T09:27:48.749Z,11.45
2023-05-22T09:30:19.774Z,11.25
2023-05-22T09:32:50.269Z,11.07
2023-05-22T09:35:20.339Z,10.07
2023-05-22T09:37:51.245Z,10.60
2023-05-22T09:40:18.647Z,10.77
2023-05-22T09:42:46.199Z,9.95
2023-05-22T09:45:14.026Z,9.93
2023-05-22T09:47:41.795Z,10.98
2023-05-22T09:50:10.906Z,9.70
2023-05-22T09:52:39.110Z,9.93
2023-05-22T09:55:07.694Z,9.60
2023-05-22T09:57:45.701Z,9.77
2023-05-22T10:00:16.097Z,9.30
2023-05-22T10:02:45.925Z,9.65
2023-05-22T10:05:21.501Z,9.55
2023-05-22T10:07:53.069Z,8.65
2023-05-22T10:10:22.454Z,8.13
2023-05-22T10:12:54.287Z,9.48
2023-05-22T10:15:21.863Z,8.73
2023-05-22T10:17:49.721Z,9.13
2023-05-22T10:20:17.879Z,8.43
2023-05-22T10:22:47.149Z,8.82
2023-05-22T10:25:14.629Z,8.75
2023-05-22T10:27:42.432Z,9.05
2023-05-22T10:30:28.628Z,7.85
2023-05-22T10:32:56.631Z,8.05
2023-05-22T10:35:38.376Z,7.90
2023-05-22T10:38:24.699Z,8.00
2023-05-22T10:40:52.122Z,8.98
2023-05-22T10:43:19.629Z,8.65
2023-05-22T10:45:48.237Z,7.95
2023-05-22T10:48:16.494Z,8.10
2023-05-22T10:50:53.077Z,7.90
2023-05-22T10:53:21.384Z,7.72
2023-05-22T10:55:58.384Z,8.00
2023-05-22T10:58:27.776Z,6.82
2023-05-22T11:01:13.703Z,7.25
2023-05-22T11:04:00.160Z,6.32
2023-05-22T11:06:33.697Z,7.45
2023-05-22T11:09:01.253Z,7.13
2023-05-22T11:11:29.056Z,6.95
2023-05-22T11:14:06.058Z,7.40
2023-05-22T11:16:34.045Z,7.97
2023-05-22T11:19:18.635Z,7.18
2023-05-22T11:21:50.421Z,7.35
2023-05-22T11:24:18.463Z,6.88
2023-05-22T11:27:01.532Z,6.53
2023-05-22T11:29:29.566Z,7.97
2023-05-22T11:31:57.864Z,7.40
2023-05-22T11:34:25.986Z,6.60
2023-05-22T11:36:53.645Z,7.10
2023-05-22T11:39:20.979Z,14.27
2023-05-22T11:41:48.429Z,7.18
2023-05-22T11:44:15.942Z,6.60
2023-05-22T11:46:43.412Z,7.93
2023-05-22T11:49:13.441Z,6.90
2023-05-22T11:51:41.395Z,6.47
2023-05-22T11:54:09.103Z,6.93
2023-05-22T11:56:36.667Z,6.50
2023-05-22T11:59:04.200Z,6.50
2023-05-22T12:01:31.663Z,6.78
2023-05-22T12:03:59.301Z,7.18
2023-05-22T12:06:26.892Z,6.57
2023-05-22T12:08:54.496Z,6.10
2023-05-22T12:11:21.975Z,6.97
2023-05-22T12:13:52.339Z,6.40
2023-05-22T12:16:22.154Z,6.10
2023-05-22T12:18:53.393Z,5.68
2023-05-22T12:21:21.367Z,6.53
2023-05-22T12:23:51.929Z,6.40
2023-05-22T12:26:20.181Z,6.90
2023-05-22T12:28:47.552Z,6.72
2023-05-22T12:31:22.400Z,6.43
2023-05-22T12:33:49.859Z,6.60
2023-05-22T12:36:17.341Z,5.90
2023-05-22T12:38:44.796Z,6.03
2023-05-22T12:41:12.201Z,6.30
2023-05-22T12:43:39.571Z,6.38
2023-05-22T12:46:07.064Z,6.55
2023-05-22T12:48:34.509Z,6.05
2023-05-22T12:51:01.982Z,5.65
2023-05-22T12:53:29.360Z,6.45
2023-05-22T12:55:56.793Z,6.40
2023-05-22T12:58:24.252Z,6.32
2023-05-22T13:00:51.596Z,6.47
2023-05-22T13:03:19.075Z,6.05
2023-05-22T13:05:46.468Z,5.95
2023-05-22T13:08:13.896Z,6.30
2023-05-22T13:13:25.018Z,6.22
2023-05-22T13:31:41.862Z,7.50
2023-05-22T13:34:09.689Z,6.95
2023-05-22T13:36:38.843Z,6.82
2023-05-22T13:39:06.275Z,6.20
2023-05-22T13:41:33.680Z,6.45
2023-05-22T13:44:01.082Z,5.97
2023-05-22T13:46:28.480Z,6.03
2023-05-22T13:48:56.028Z,6.13
2023-05-22T13:51:23.570Z,5.85
2023-05-22T13:53:50.981Z,5.80
2023-05-22T13:56:18.385Z,5.57
2023-05-22T13:58:45.887Z,5.85
2023-05-22T14:01:13.336Z,5.70
2023-05-22T14:03:40.955Z,5.82
2023-05-22T14:06:08.414Z,4.90
2023-05-22T14:08:36.078Z,5.80
2023-05-22T14:11:04.702Z,5.05
2023-05-22T14:13:32.408Z,5.82
2023-05-22T14:15:59.839Z,5.35
2023-05-22T14:18:27.221Z,5.00
2023-05-22T14:20:54.618Z,5.15
2023-05-22T14:23:22.022Z,5.75
2023-05-22T14:25:49.387Z,5.20
2023-05-22T14:28:16.784Z,5.38
2023-05-22T14:30:44.209Z,5.25
2023-05-22T14:33:11.713Z,5.53
2023-05-22T14:35:39.352Z,5.18
2023-05-22T14:38:06.927Z,5.22
2023-05-22T14:40:34.269Z,5.40
2023-05-22T14:43:01.635Z,4.75
2023-05-22T14:45:28.994Z,4.80
2023-05-22T14:47:56.487Z,4.90
2023-05-22T14:50:23.893Z,4.68
2023-05-22T14:52:51.495Z,4.78
2023-05-22T14:55:19.119Z,4.45
2023-05-22T14:57:46.576Z,4.93
2023-05-22T15:00:14.697Z,5.00
2023-05-22T15:02:42.125Z,4.93
2023-05-22T15:05:09.903Z,4.55
2023-05-22T15:07:43.906Z,4.70
2023-05-22T15:10:12.393Z,3.95
2023-05-22T15:12:39.800Z,4.72
2023-05-22T15:15:07.466Z,4.85
2023-05-22T15:17:34.891Z,4.65
2023-05-22T15:20:02.416Z,4.60
2023-05-22T15:22:29.822Z,4.90
2023-05-22T15:25:04.810Z,4.30
2023-05-22T15:27:32.799Z,4.45
2023-05-22T15:30:00.205Z,4.63
2023-05-22T15:32:27.598Z,4.72
2023-05-22T15:34:54.969Z,4.45
2023-05-22T15:37:22.431Z,5.03
2023-05-22T15:39:49.774Z,4.82
2023-05-22T15:42:17.253Z,4.47
2023-05-22T15:44:44.616Z,8.23
2023-05-22T15:47:12.007Z,5.65
2023-05-22T15:49:39.373Z,4.65
2023-05-22T15:52:06.894Z,5.53
2023-05-22T15:54:34.236Z,5.22
2023-05-22T15:57:01.600Z,5.20
2023-05-22T15:59:28.998Z,4.97
2023-05-22T16:01:56.408Z,5.00
2023-05-22T16:04:23.821Z,4.65
2023-05-22T16:06:51.227Z,5.00
2023-05-22T16:09:19.686Z,5.22
2023-05-22T16:11:47.167Z,6.22
2023-05-22T16:14:14.619Z,4.65
2023-05-22T16:16:42.112Z,4.53
2023-05-22T16:19:11.605Z,13.00
2023-05-22T16:21:39.427Z,7.70
2023-05-22T16:24:07.295Z,5.00
2023-05-22T16:26:36.530Z,4.90
2023-05-22T16:29:03.957Z,4.45
2023-05-22T16:31:35.557Z,5.45
2023-05-22T16:34:03.797Z,5.05
2023-05-22T16:36:31.333Z,5.15
2023-05-22T16:38:58.914Z,4.78
2023-05-22T16:41:26.969Z,4.65
2023-05-22T16:43:54.527Z,8.50
2023-05-22T16:46:21.947Z,4.40
2023-05-22T16:48:50.569Z,5.97
2023-05-22T16:51:17.962Z,5.05
2023-05-22T16:53:46.815Z,4.97
2023-05-22T16:56:14.789Z,5.22
2023-05-22T16:58:42.300Z,5.20
2023-05-22T17:01:09.773Z,5.10
2023-05-22T17:03:37.300Z,5.18
2023-05-22T17:06:04.977Z,5.40
2023-05-22T17:08:32.498Z,4.82
2023-05-22T17:10:59.855Z,4.68
2023-05-22T17:13:27.216Z,4.97
2023-05-22T17:15:54.562Z,5.25
2023-05-22T17:18:22.220Z,5.03
2023-05-22T17:20:50.376Z,5.32
2023-05-22T17:23:18.043Z,5.35
2023-05-22T17:25:46.989Z,5.13
2023-05-22T17:28:14.837Z,4.95
2023-05-22T17:30:43.288Z,5.00
2023-05-22T17:33:11.215Z,4.70
2023-05-22T17:35:38.657Z,4.82
2023-05-22T17:38:08.598Z,4.82
2023-05-22T17:40:44.759Z,5.00
2023-05-22T17:43:13.433Z,4.97
2023-05-22T17:45:42.046Z,5.40
2023-05-22T17:48:10.144Z,5.10
2023-05-22T17:50:38.287Z,4.88
2023-05-22T17:53:05.801Z,5.05
2023-05-22T17:55:33.179Z,4.82
2023-05-22T17:58:00.821Z,4.90
2023-05-22T18:00:28.293Z,4.72
2023-05-22T18:02:55.875Z,5.10
2023-05-22T18:05:23.363Z,5.13
2023-05-22T18:07:50.736Z,5.10
2023-05-22T18:10:18.193Z,4.70
2023-05-22T18:12:45.714Z,4.82
2023-05-22T18:15:13.143Z,4.88
2023-05-22T18:17:41.534Z,4.60
2023-05-22T18:20:09.562Z,5.93
2023-05-22T18:22:38.630Z,6.80
2023-05-22T18:25:06.992Z,7.47
2023-05-22T18:27:34.660Z,7.78
2023-05-22T18:30:02.238Z,7.38
2023-05-22T18:32:29.808Z,7.10
2023-05-22T18:34:58.768Z,7.50
2023-05-22T18:37:26.263Z,7.47
2023-05-22T18:39:53.699Z,8.02
2023-05-22T18:42:21.134Z,7.57
2023-05-22T18:44:49.711Z,7.90
2023-05-22T18:47:17.638Z,7.35
2023-05-22T18:49:45.235Z,7.50
2023-05-22T18:52:12.899Z,8.32
2023-05-22T18:54:40.316Z,9.10
2023-05-22T18:57:07.788Z,9.00
2023-05-22T18:59:35.208Z,8.98
2023-05-22T19:02:02.633Z,9.82
2023-05-22T19:04:30.133Z,9.45
2023-05-22T19:06:57.855Z,9.90
2023-05-22T19:09:25.862Z,9.73
2023-05-22T19:11:53.402Z,10.48
2023-05-22T19:14:20.916Z,10.07
2023-05-22T19:16:48.396Z,9.82
2023-05-22T19:19:15.784Z,10.48
2023-05-22T19:21:43.294Z,10.98
2023-05-22T19:24:10.691Z,10.77
2023-05-22T19:26:38.083Z,11.30
2023-05-22T19:29:05.485Z,11.68
2023-05-22T19:31:33.016Z,12.02
2023-05-22T19:34:00.725Z,11.85
2023-05-22T19:36:28.212Z,12.38
2023-05-22T19:38:55.677Z,10.80
2023-05-22T19:41:23.252Z,10.65
2023-05-22T19:43:52.123Z,9.68
2023-05-22T19:46:19.621Z,10.57
2023-05-22T19:48:47.038Z,11.15
2023-05-22T19:51:14.438Z,10.73
2023-05-22T19:53:42.815Z,10.57
2023-05-22T19:56:10.225Z,11.00
2023-05-22T19:58:37.646Z,10.85
2023-05-22T20:03:40.194Z,12.45
2023-05-22T20:06:07.810Z,12.73
2023-05-22T20:08:36.441Z,12.57
2023-05-22T20:11:03.817Z,12.57
2023-05-22T20:13:31.182Z,12.48
2023-05-22T20:15:58.602Z,13.40
2023-05-22T20:18:26.287Z,12.23
2023-05-22T20:20:53.758Z,10.90
2023-05-22T20:23:21.145Z,10.82
2023-05-22T20:25:48.515Z,10.90
2023-05-22T20:28:16.035Z,9.38
2023-05-22T20:30:43.397Z,10.30
2023-05-22T20:33:12.148Z,9.27
2023-05-22T20:35:40.142Z,9.82
2023-05-22T20:38:10.020Z,10.65
2023-05-22T20:40:38.066Z,10.52
2023-05-22T20:43:05.589Z,10.15
2023-05-22T20:45:33.621Z,9.90
2023-05-22T20:48:01.256Z,9.02
2023-05-22T20:50:28.740Z,9.90
2023-05-22T20:52:56.224Z,10.05
2023-05-22T20:55:25.647Z,10.93
2023-05-22T20:57:53.113Z,10.52
2023-05-22T21:00:20.636Z,11.40
2023-05-22T21:02:48.130Z,11.32
2023-05-22T21:05:15.944Z,11.18
2023-05-22T21:07:43.404Z,10.90
2023-05-22T21:10:10.996Z,10.52
2023-05-22T21:12:38.455Z,10.40
2023-05-22T21:15:06.392Z,10.45
2023-05-22T21:17:33.857Z,10.48
2023-05-22T21:20:01.215Z,10.52
2023-05-22T21:22:28.609Z,10.82
2023-05-22T21:24:55.969Z,10.88
2023-05-22T21:27:23.391Z,11.32
2023-05-22T21:29:50.765Z,11.45
2023-05-22T21:32:18.168Z,10.63
2023-05-22T21:34:46.914Z,10.40
2023-05-22T21:37:14.302Z,11.48
2023-05-22T21:39:41.837Z,10.43
2023-05-22T21:42:09.307Z,10.65
2023-05-22T21:44:37.690Z,10.70
2023-05-22T21:47:05.146Z,11.80
2023-05-22T21:49:33.287Z,11.00
2023-05-22T21:52:00.721Z,10.85
2023-05-22T21:54:29.250Z,10.90
2023-05-22T21:56:56.616Z,11.25
2023-05-22T21:59:24.092Z,11.40
2023-05-22T22:01:51.580Z,11.75
2023-05-22T22:04:19.013Z,12.88
2023-05-22T22:06:46.431Z,12.68
2023-05-22T22:09:13.802Z,11.75
2023-05-22T22:11:41.272Z,12.48
2023-05-22T22:14:08.704Z,11.65
2023-05-22T22:16:36.569Z,12.23
2023-05-22T22:19:04.371Z,13.02
2023-05-22T22:21:33.586Z,12.45
2023-05-22T22:24:00.958Z,11.55
2023-05-22T22:26:30.825Z,11.65
2023-05-22T22:28:58.166Z,11.40
2023-05-22T22:31:26.506Z,11.38
2023-05-22T22:33:53.979Z,11.38
2023-05-22T22:36:21.468Z,11.82
2023-05-22T22:38:48.888Z,11.32
2023-05-22T22:41:16.276Z,11.43
2023-05-22T22:43:43.668Z,10.55
2023-05-22T22:46:11.242Z,10.52
2023-05-22T22:48:41.854Z,11.13
2023-05-22T22:51:09.795Z,10.82
2023-05-22T22:53:37.880Z,11.00
2023-05-22T22:56:05.449Z,10.73
2023-05-22T22:58:32.810Z,13.15
2023-05-22T23:01:00.279Z,12.23
2023-05-22T23:03:27.652Z,11.48
2023-05-22T23:05:55.078Z,11.30
2023-05-22T23:08:22.825Z,12.57
2023-05-22T23:10:50.242Z,11.60
2023-05-22T23:13:17.657Z,11.63
2023-05-22T23:15:45.122Z,10.90
2023-05-22T23:18:14.143Z,11.48
2023-05-22T23:20:41.624Z,11.02
2023-05-22T23:23:08.998Z,11.18
2023-05-22T23:25:36.396Z,11.38
2023-05-22T23:28:03.908Z,10.98
2023-05-22T23:30:31.369Z,11.77
2023-05-22T23:32:58.860Z,12.77
2023-05-22T23:35:26.281Z,13.32
2023-05-22T23:37:53.630Z,12.60
2023-05-22T23:40:21.184Z,12.27
2023-05-22T23:42:48.627Z,13.32
2023-05-22T23:45:16.110Z,13.88
2023-05-22T23:47:43.513Z,15.23
2023-05-22T23:50:11.237Z,13.70
2023-05-22T23:52:38.643Z,13.70
2023-05-22T23:55:06.883Z,13.13
2023-05-22T23:57:34.263Z,13.38
